Time;durP1;ratioP1;P1;durP2;ratioP2;P2;SDS_P1;SDS_P2;PMS_P1;PMS_P2;Temp;Humidity;BMP_temperature;BMP_pressure;BME280_temperature;BME280_humidity;BME280_pressure;Samples;Min_cycle;Max_cycle;Signal;HPM_P1;HPM_P2
2021/03/06 00:00:57;;;;;;;11.43;4.82;;;-0.80;84.10;;;;;;6173911;23;20017;-39
2021/03/06 00:03:23;;;;;;;8.52;4.05;;;-0.80;82.80;;;;;;6173257;23;20765;-40
2021/03/06 00:05:48;;;;;;;7.07;4.25;;;-0.90;83.40;;;;;;6183201;23;20108;-41
2021/03/06 00:08:14;;;;;;;11.40;4.82;;;-0.80;83.60;;;;;;6146989;23;20290;-39
2021/03/06 00:10:40;;;;;;;12.25;4.55;;;-0.90;83.60;;;;;;6183694;23;20038;-39
2021/03/06 00:13:06;;;;;;;8.20;4.95;;;-0.90;83.20;;;;;;6146554;23;20025;-39
2021/03/06 00:15:32;;;;;;;10.73;4.22;;;-0.90;83.10;;;;;;6172748;23;20025;-40
2021/03/06 00:18:19;;;;;;;9.32;5.13;;;-0.90;83.60;;;;;;6147315;23;20021;-39
2021/03/06 00:20:46;;;;;;;8.27;4.75;;;-1.00;83.50;;;;;;6147980;23;20052;-39
2021/03/06 00:23:12;;;;;;;14.43;4.88;;;-1.00;84.10;;;;;;6181387;23;20044;-39
2021/03/06 00:25:38;;;;;;;13.90;4.93;;;-1.00;84.20;;;;;;6146457;23;20047;-39
2021/03/06 00:28:04;;;;;;;14.10;5.05;;;-1.00;84.60;;;;;;6173045;23;20075;-39
2021/03/06 00:30:30;;;;;;;11.10;4.43;;;-1.00;85.20;;;;;;6174309;23;20021;-39
2021/03/06 00:32:56;;;;;;;11.63;5.00;;;-1.10;85.60;;;;;;6146131;23;20548;-39
2021/03/06 00:35:21;;;;;;;13.13;4.97;;;-1.10;84.80;;;;;;6183378;23;20020;-39
2021/03/06 00:37:48;;;;;;;7.68;4.57;;;-1.10;84.10;;;;;;6173963;23;20017;-39
2021/03/06 00:40:14;;;;;;;10.85;5.72;;;-1.10;84.10;;;;;;6173465;23;20327;-40
2021/03/06 00:42:40;;;;;;;9.57;4.85;;;-1.10;85.10;;;;;;6172538;23;20083;-40
2021/03/06 00:45:07;;;;;;;7.95;5.10;;;-1.20;85.60;;;;;;6173071;23;20021;-38
2021/03/06 00:47:33;;;;;;;9.63;5.47;;;-1.30;85.40;;;;;;6156994;23;20025;-40
2021/03/06 00:49:58;;;;;;;9.63;4.90;;;-1.30;86.40;;;;;;6173777;23;20017;-39
2021/03/06 00:52:24;;;;;;;12.60;5.13;;;-1.30;85.60;;;;;;6144823;23;20709;-39
2021/03/06 00:54:53;;;;;;;10.45;5.43;;;-1.20;87.10;;;;;;6172825;23;20035;-39
2021/03/06 00:57:19;;;;;;;10.40;5.88;;;-1.30;86.30;;;;;;6156970;23;20186;-38
2021/03/06 00:59:44;;;;;;;10.98;4.85;;;-1.20;86.30;;;;;;6147068;23;20021;-39
2021/03/06 01:02:10;;;;;;;10.43;5.53;;;-1.20;86.40;;;;;;6145999;23;20501;-40
2021/03/06 01:04:36;;;;;;;9.80;5.70;;;-1.20;86.30;;;;;;6152274;23;20024;-39
2021/03/06 01:07:02;;;;;;;10.73;4.82;;;-1.20;86.00;;;;;;6174143;23;20017;-39
2021/03/06 01:09:28;;;;;;;18.67;5.85;;;-1.30;85.80;;;;;;6173246;23;20052;-38
2021/03/06 01:11:54;;;;;;;12.93;5.88;;;-1.30;86.00;;;;;;6181917;23;20469;-39
2021/03/06 01:14:20;;;;;;;9.77;5.28;;;-1.30;86.10;;;;;;6182435;23;20132;-38
2021/03/06 01:16:46;;;;;;;10.30;4.93;;;-1.30;85.60;;;;;;6147006;23;20375;-40
2021/03/06 01:19:12;;;;;;;8.63;5.20;;;-1.30;85.20;;;;;;6183055;23;20024;-39
2021/03/06 01:21:44;;;;;;;10.27;4.88;;;-1.30;85.90;;;;;;6172413;23;20028;-39
2021/03/06 01:24:10;;;;;;;11.40;5.65;;;-1.40;85.90;;;;;;6172690;23;20021;-39
2021/03/06 01:26:38;;;;;;;11.73;5.25;;;-1.40;86.40;;;;;;6172888;23;20104;-39
2021/03/06 01:29:03;;;;;;;12.52;5.82;;;-1.40;86.10;;;;;;6182915;23;20427;-38
2021/03/06 01:31:29;;;;;;;9.88;6.00;;;-1.40;86.80;;;;;;6145111;23;20021;-39
2021/03/06 01:33:55;;;;;;;9.93;5.97;;;-1.40;87.20;;;;;;6146772;23;20410;-39
2021/03/06 01:36:21;;;;;;;13.68;5.43;;;-1.40;87.10;;;;;;6182541;23;20440;-38
2021/03/06 01:42:50;;;;;;;8.98;5.45;;;-1.30;87.70;;;;;;6183144;23;20048;-39
2021/03/06 01:45:16;;;;;;;14.43;6.88;;;-1.30;87.30;;;;;;6173253;23;20027;-39
2021/03/06 01:47:43;;;;;;;9.75;5.50;;;-1.30;87.50;;;;;;6182250;23;20024;-39
2021/03/06 01:50:09;;;;;;;10.20;6.32;;;-1.30;87.30;;;;;;6156360;23;20036;-39
2021/03/06 01:52:36;;;;;;;17.63;6.90;;;-1.30;88.10;;;;;;6182854;23;20020;-39
2021/03/06 01:55:04;;;;;;;12.80;6.95;;;-1.30;87.90;;;;;;6171944;23;20017;-39
2021/03/06 01:57:30;;;;;;;11.30;6.03;;;-1.30;87.90;;;;;;6181394;23;20029;-39
2021/03/06 01:59:56;;;;;;;11.07;6.20;;;-1.30;88.20;;;;;;6146035;23;20025;-39
2021/03/06 02:02:23;;;;;;;14.23;7.07;;;-1.30;87.90;;;;;;6183381;23;20020;-39
2021/03/06 02:04:48;;;;;;;16.35;8.15;;;-1.30;86.70;;;;;;6181528;23;20025;-39
2021/03/06 02:07:14;;;;;;;10.57;6.15;;;-1.20;89.40;;;;;;6171402;23;20017;-40
2021/03/06 02:09:41;;;;;;;11.75;6.38;;;-1.20;89.10;;;;;;6172121;23;20380;-39
2021/03/06 02:12:38;;;;;;;15.43;6.35;;;-1.10;90.00;;;;;;6182468;23;20085;-39
2021/03/06 02:15:30;;;;;;;11.90;6.70;;;-1.10;90.00;;;;;;6181072;23;20061;-40
2021/03/06 02:18:09;;;;;;;9.50;5.90;;;-1.00;90.00;;;;;;6145051;23;20017;-40
2021/03/06 02:21:02;;;;;;;12.38;6.53;;;-0.90;89.40;;;;;;6154662;23;20357;-39
2021/03/06 02:24:11;;;;;;;11.18;6.65;;;-0.80;89.10;;;;;;6181232;23;20021;-40
2021/03/06 02:27:08;;;;;;;12.70;6.43;;;-0.70;90.00;;;;;;6060313;23;20027;-40
2021/03/06 02:29:42;;;;;;;14.48;6.82;;;-0.60;89.90;;;;;;6061429;23;20031;-40
2021/03/06 02:32:11;;;;;;;14.52;7.15;;;-0.50;89.90;;;;;;6060559;23;20034;-39
2021/03/06 02:34:38;;;;;;;11.45;6.32;;;-0.40;89.60;;;;;;6061300;23;20034;-39
2021/03/06 02:37:08;;;;;;;13.40;7.25;;;-0.40;89.50;;;;;;6051110;23;20029;-39
2021/03/06 02:39:36;;;;;;;12.75;6.50;;;-0.40;89.60;;;;;;6050819;23;20788;-40
2021/03/06 02:42:05;;;;;;;14.00;6.53;;;-0.40;89.90;;;;;;6060988;23;20022;-39
2021/03/06 02:44:34;;;;;;;10.85;7.03;;;-0.30;88.80;;;;;;6051812;23;20018;-39
2021/03/06 02:47:00;;;;;;;11.60;6.32;;;-0.20;88.90;;;;;;6061218;23;20464;-39
2021/03/06 02:49:26;;;;;;;9.90;6.80;;;-0.20;88.60;;;;;;6050507;23;20029;-38
2021/03/06 02:51:52;;;;;;;10.82;5.65;;;-0.10;88.00;;;;;;6061213;23;20031;-40
2021/03/06 02:58:14;;;;;;;12.82;6.80;;;-0.20;89.00;;;;;;6051325;23;20447;-40
2021/03/06 03:00:59;;;;;;;9.83;5.83;;;-0.10;88.40;;;;;;6061266;23;20158;-38
2021/03/06 03:03:53;;;;;;;17.55;7.32;;;-0.10;87.80;;;;;;6107594;23;20453;-39
2021/03/06 03:06:31;;;;;;;11.25;6.25;;;-0.10;88.70;;;;;;6154717;23;20029;-40
2021/03/06 03:09:07;;;;;;;10.63;7.10;;;-0.10;89.70;;;;;;6181041;23;20104;-39
2021/03/06 03:11:41;;;;;;;12.50;7.10;;;0.00;89.40;;;;;;6181984;23;20098;-39
2021/03/06 03:14:11;;;;;;;14.40;7.28;;;0.00;90.40;;;;;;6181953;23;20021;-39
2021/03/06 03:16:44;;;;;;;14.93;7.20;;;0.00;90.10;;;;;;6170349;23;20027;-39
2021/03/06 03:19:24;;;;;;;16.30;7.18;;;0.00;89.50;;;;;;6183750;23;20067;-39
2021/03/06 03:21:53;;;;;;;13.02;7.70;;;0.10;89.30;;;;;;6171102;23;20453;-39
2021/03/06 03:24:21;;;;;;;14.45;7.57;;;0.10;90.00;;;;;;6181770;23;20863;-39
2021/03/06 03:26:49;;;;;;;16.27;8.70;;;0.10;89.40;;;;;;6181114;23;20031;-40
2021/03/06 03:29:16;;;;;;;12.23;6.88;;;0.10;89.10;;;;;;6181578;23;20032;-39
2021/03/06 03:31:50;;;;;;;14.55;7.07;;;0.20;88.60;;;;;;6181073;23;20124;-39
2021/03/06 03:34:20;;;;;;;16.17;7.43;;;0.20;88.50;;;;;;6183004;23;20027;-39
2021/03/06 03:37:19;;;;;;;12.90;7.10;;;0.20;88.80;;;;;;6182066;23;20096;-40
2021/03/06 03:39:48;;;;;;;12.02;7.72;;;0.30;89.40;;;;;;6173020;23;20028;-40
2021/03/06 03:42:15;;;;;;;16.80;7.45;;;0.30;89.60;;;;;;6181684;23;20031;-40
2021/03/06 03:44:41;;;;;;;15.38;8.38;;;0.30;88.70;;;;;;6180649;23;20473;-40
2021/03/06 03:47:08;;;;;;;11.55;7.10;;;0.40;89.70;;;;;;6170913;23;20123;-39
2021/03/06 03:49:33;;;;;;;14.45;7.70;;;0.30;90.10;;;;;;6182125;23;20021;-39
2021/03/06 03:52:00;;;;;;;16.58;7.50;;;0.30;90.20;;;;;;6182400;23;20025;-39
2021/03/06 03:54:26;;;;;;;11.95;7.47;;;0.40;90.30;;;;;;6144330;23;20477;-39
2021/03/06 03:56:52;;;;;;;12.27;7.47;;;0.30;90.40;;;;;;6144578;23;20124;-39
2021/03/06 03:59:18;;;;;;;14.63;7.10;;;0.30;90.00;;;;;;6181576;23;20411;-40
2021/03/06 04:01:47;;;;;;;15.55;8.30;;;0.40;89.70;;;;;;6182676;23;20112;-40
2021/03/06 04:04:31;;;;;;;17.02;8.45;;;0.40;90.10;;;;;;6172377;23;20477;-39
2021/03/06 04:06:58;;;;;;;15.35;7.90;;;0.40;90.10;;;;;;6183660;23;20028;-39
2021/03/06 04:09:24;;;;;;;17.70;8.05;;;0.40;89.80;;;;;;6183750;23;20648;-40
2021/03/06 04:11:51;;;;;;;10.57;7.68;;;0.40;90.00;;;;;;6181939;23;20732;-40
2021/03/06 04:14:17;;;;;;;13.85;7.15;;;0.50;90.20;;;;;;6121929;23;20021;-39
2021/03/06 04:16:43;;;;;;;13.35;8.27;;;0.50;90.00;;;;;;6172902;23;20021;-40
2021/03/06 04:19:09;;;;;;;11.30;7.28;;;0.50;90.40;;;;;;6183638;23;20353;-39
2021/03/06 04:21:35;;;;;;;16.77;7.65;;;0.50;90.80;;;;;;6182998;23;20025;-41
2021/03/06 04:24:01;;;;;;;13.88;6.65;;;0.60;90.50;;;;;;6174615;23;20024;-40
2021/03/06 04:26:27;;;;;;;16.15;6.43;;;0.60;90.20;;;;;;6173253;23;20041;-39
2021/03/06 04:28:53;;;;;;;16.52;7.05;;;0.60;90.30;;;;;;6183535;23;20048;-39
2021/03/06 04:31:19;;;;;;;15.32;6.90;;;0.70;90.10;;;;;;6146348;23;20104;-40
2021/03/06 04:33:45;;;;;;;13.77;6.75;;;0.80;90.30;;;;;;6147145;23;20024;-40
2021/03/06 04:36:20;;;;;;;13.52;6.28;;;0.80;90.30;;;;;;6173615;23;20052;-39
2021/03/06 04:38:47;;;;;;;12.55;7.32;;;0.90;90.00;;;;;;6182281;23;20125;-40
2021/03/06 04:41:13;;;;;;;15.50;6.30;;;0.90;89.50;;;;;;6172762;23;20024;-40
2021/03/06 04:43:39;;;;;;;12.85;5.95;;;0.90;88.80;;;;;;6173179;23;20029;-39
2021/03/06 04:46:05;;;;;;;15.50;6.75;;;0.90;89.30;;;;;;6183171;23;20453;-39
2021/03/06 04:48:30;;;;;;;12.05;6.50;;;0.90;89.10;;;;;;6155599;23;20025;-40
2021/03/06 04:51:18;;;;;;;15.05;6.75;;;0.90;89.50;;;;;;6173373;23;20092;-39
2021/03/06 04:53:44;;;;;;;8.77;6.55;;;0.90;90.00;;;;;;6147577;23;20035;-40
2021/03/06 04:56:09;;;;;;;13.15;7.45;;;0.90;90.30;;;;;;6182330;23;20025;-40
2021/03/06 04:58:35;;;;;;;11.65;7.07;;;0.90;90.70;;;;;;6146153;23;20028;-39
2021/03/06 05:01:01;;;;;;;13.18;6.82;;;0.90;90.60;;;;;;6173773;23;20021;-40
2021/03/06 05:03:27;;;;;;;13.32;7.35;;;0.90;90.30;;;;;;6182144;23;20422;-39
2021/03/06 05:05:52;;;;;;;14.18;7.50;;;0.90;90.40;;;;;;6171073;23;20032;-39
2021/03/06 05:08:18;;;;;;;11.60;7.13;;;0.90;90.00;;;;;;6145694;23;20603;-40
2021/03/06 05:10:44;;;;;;;18.02;7.00;;;1.00;90.10;;;;;;6183157;23;20025;-39
2021/03/06 05:13:10;;;;;;;13.18;5.97;;;1.00;90.20;;;;;;6173430;23;20025;-40
2021/03/06 05:15:35;;;;;;;12.27;6.07;;;1.00;90.00;;;;;;6182751;23;20024;-40
2021/03/06 05:18:01;;;;;;;13.43;6.38;;;1.00;89.40;;;;;;6182269;23;20017;-39
2021/03/06 05:20:27;;;;;;;11.82;6.32;;;1.10;89.30;;;;;;6173491;23;20396;-39
2021/03/06 05:22:53;;;;;;;12.65;6.60;;;1.10;89.90;;;;;;6172978;23;20025;-39
2021/03/06 05:25:18;;;;;;;11.65;6.10;;;1.10;89.20;;;;;;6182771;23;20025;-40
2021/03/06 05:27:52;;;;;;;13.32;6.05;;;1.10;89.60;;;;;;6181995;23;20028;-39
2021/03/06 05:30:21;;;;;;;10.38;6.20;;;1.10;90.20;;;;;;6146176;23;20021;-39
2021/03/06 05:32:47;;;;;;;11.77;6.60;;;1.10;89.90;;;;;;6182683;23;20021;-39
2021/03/06 05:35:12;;;;;;;14.00;6.65;;;1.10;89.50;;;;;;6172819;23;20017;-39
2021/03/06 05:37:38;;;;;;;13.45;6.57;;;1.10;89.50;;;;;;6182045;23;20115;-40
2021/03/06 05:40:05;;;;;;;12.27;6.07;;;1.10;89.00;;;;;;6172652;23;20013;-39
2021/03/06 05:42:31;;;;;;;10.65;5.82;;;1.20;89.30;;;;;;6182353;23;20017;-40
2021/03/06 05:44:57;;;;;;;9.82;5.60;;;1.20;89.20;;;;;;6144489;23;20023;-40
2021/03/06 05:47:23;;;;;;;10.27;6.43;;;1.20;89.50;;;;;;6172882;23;20088;-41
2021/03/06 05:49:49;;;;;;;13.60;5.60;;;1.20;89.30;;;;;;6182828;23;20021;-39
2021/03/06 05:52:19;;;;;;;11.27;5.63;;;1.30;89.40;;;;;;6172615;23;20041;-40
2021/03/06 05:54:49;;;;;;;12.57;6.30;;;1.30;89.00;;;;;;6171210;23;20021;-39
2021/03/06 05:57:18;;;;;;;12.18;5.60;;;1.30;89.60;;;;;;6182157;23;20017;-38
2021/03/06 05:59:45;;;;;;;16.27;6.22;;;1.30;88.90;;;;;;6172555;23;20021;-40
2021/03/06 06:02:12;;;;;;;11.50;5.90;;;1.30;89.00;;;;;;6172513;23;20071;-39
2021/03/06 06:04:40;;;;;;;12.50;5.72;;;1.30;89.80;;;;;;6183249;23;20488;-39
2021/03/06 06:07:07;;;;;;;12.35;6.32;;;1.20;90.30;;;;;;6182643;23;20044;-39
2021/03/06 06:09:33;;;;;;;15.65;7.03;;;1.30;90.00;;;;;;6181575;23;20017;-39
2021/03/06 06:12:00;;;;;;;8.85;5.65;;;1.20;90.40;;;;;;6181577;23;20029;-39
2021/03/06 06:14:25;;;;;;;13.75;5.90;;;1.20;89.80;;;;;;6155707;23;20330;-39
2021/03/06 06:16:52;;;;;;;10.18;6.18;;;1.20;89.50;;;;;;6183147;23;20021;-39
2021/03/06 06:19:18;;;;;;;12.30;6.35;;;1.20;89.50;;;;;;6182124;23;20357;-39
2021/03/06 06:21:52;;;;;;;13.20;6.45;;;1.20;89.90;;;;;;6172065;23;20147;-40
2021/03/06 06:24:22;;;;;;;13.55;6.30;;;1.20;90.10;;;;;;6173351;23;20021;-39
2021/03/06 06:27:03;;;;;;;9.93;5.88;;;1.20;90.00;;;;;;6146149;23;20061;-40
2021/03/06 06:29:44;;;;;;;16.33;6.90;;;1.30;89.80;;;;;;6181883;23;20028;-41
2021/03/06 06:32:12;;;;;;;14.20;6.03;;;1.30;90.20;;;;;;6183223;23;20290;-39
2021/03/06 06:34:39;;;;;;;11.10;5.97;;;1.30;90.20;;;;;;6173475;23;20021;-40
2021/03/06 06:37:09;;;;;;;12.80;5.63;;;1.40;90.20;;;;;;6182242;23;20020;-39
2021/03/06 06:43:22;;;;;;;8.63;4.63;;;1.40;90.20;;;;;;6196596;22;20103;-40
2021/03/06 06:45:48;;;;;;;8.82;4.85;;;1.50;89.50;;;;;;6213428;23;20067;-39
2021/03/06 06:48:14;;;;;;;9.13;4.75;;;1.60;90.00;;;;;;6212833;23;20059;-39
2021/03/06 06:50:40;;;;;;;11.98;5.53;;;1.60;89.30;;;;;;6202252;23;20020;-39
2021/03/06 06:53:06;;;;;;;10.00;5.30;;;1.70;89.50;;;;;;6211178;23;20017;-40
2021/03/06 06:55:40;;;;;;;9.40;4.57;;;1.70;89.30;;;;;;6211639;23;20131;-40
2021/03/06 06:58:06;;;;;;;11.75;5.78;;;1.70;89.30;;;;;;6186450;23;20115;-39
2021/03/06 07:00:33;;;;;;;117.38;74.05;;;1.90;88.80;;;;;;6213596;23;20021;-38
2021/03/06 07:03:04;;;;;;;14.02;6.68;;;2.00;88.60;;;;;;6185536;23;20028;-38
2021/03/06 07:05:36;;;;;;;19.70;9.60;;;2.10;88.10;;;;;;6185870;23;20017;-38
2021/03/06 07:08:08;;;;;;;19.17;10.47;;;2.20;88.30;;;;;;6213064;23;20020;-38
2021/03/06 07:10:35;;;;;;;8.43;4.25;;;2.20;88.00;;;;;;6200888;23;20267;-38
2021/03/06 07:13:04;;;;;;;9.75;4.53;;;2.30;87.80;;;;;;6213091;23;20035;-38
2021/03/06 07:15:31;;;;;;;10.13;5.93;;;2.40;87.10;;;;;;6203871;23;20028;-38
2021/03/06 07:17:59;;;;;;;6.85;3.42;;;2.40;86.60;;;;;;6203486;23;20096;-38
2021/03/06 07:20:31;;;;;;;10.18;3.55;;;2.50;86.70;;;;;;6173963;23;20025;-38
2021/03/06 07:22:59;;;;;;;14.23;7.07;;;2.40;86.60;;;;;;6175927;23;20120;-39
2021/03/06 07:25:26;;;;;;;8.80;3.60;;;2.40;86.70;;;;;;6186022;23;20267;-41
2021/03/06 07:27:53;;;;;;;11.88;3.67;;;2.40;86.90;;;;;;6211348;23;20095;-41
2021/03/06 07:30:20;;;;;;;9.90;3.88;;;2.50;86.70;;;;;;6211948;23;20100;-39
2021/03/06 07:32:47;;;;;;;9.05;4.38;;;2.50;86.60;;;;;;6176023;23;20071;-40
2021/03/06 07:35:16;;;;;;;5.22;2.88;;;2.60;86.50;;;;;;6213596;23;20060;-39
2021/03/06 07:37:42;;;;;;;13.73;5.88;;;2.60;86.40;;;;;;6150932;23;20452;-39
2021/03/06 07:40:12;;;;;;;15.98;5.15;;;2.80;86.60;;;;;;6214978;23;20771;-39
2021/03/06 07:42:51;;;;;;;8.27;3.40;;;2.80;86.20;;;;;;6215892;23;20016;-39
2021/03/06 07:45:25;;;;;;;9.90;5.35;;;3.00;85.40;;;;;;6215214;23;20017;-39
2021/03/06 07:48:06;;;;;;;20.38;14.23;;;3.10;84.90;;;;;;6178464;23;20021;-41
2021/03/06 07:50:35;;;;;;;14.18;7.53;;;3.30;85.70;;;;;;6204790;23;20094;-40
2021/03/06 07:53:01;;;;;;;11.70;5.32;;;3.20;84.20;;;;;;6205841;23;20111;-40
2021/03/06 07:55:29;;;;;;;29.17;18.63;;;3.30;84.60;;;;;;6216377;23;20024;-39
2021/03/06 07:58:11;;;;;;;9.40;3.85;;;3.60;84.00;;;;;;6215681;23;20090;-39
2021/03/06 08:00:50;;;;;;;7.05;3.05;;;3.70;82.90;;;;;;6204662;23;20413;-39
2021/03/06 08:03:26;;;;;;;9.70;3.72;;;3.80;82.60;;;;;;6214400;23;20020;-41
2021/03/06 08:05:58;;;;;;;10.38;5.18;;;3.80;82.10;;;;;;6216182;23;20425;-39
2021/03/06 08:08:30;;;;;;;10.13;4.75;;;4.10;82.60;;;;;;6188593;23;20047;-39
2021/03/06 08:11:17;;;;;;;7.97;3.13;;;4.20;81.60;;;;;;6214147;23;20021;-39
2021/03/06 08:13:46;;;;;;;8.25;4.63;;;4.10;80.50;;;;;;6215177;23;20017;-39
2021/03/06 08:16:22;;;;;;;8.18;4.90;;;4.10;81.40;;;;;;6178612;23;20017;-39
2021/03/06 08:19:13;;;;;;;8.50;4.07;;;4.20;81.10;;;;;;6177501;23;20016;-39
2021/03/06 08:21:47;;;;;;;57.03;40.03;;;4.40;82.30;;;;;;6214694;23;20021;-39
2021/03/06 08:24:18;;;;;;;14.77;9.30;;;4.30;80.30;;;;;;6214895;23;20747;-39
2021/03/06 08:27:12;;;;;;;10.45;5.05;;;4.30;80.40;;;;;;6216152;23;20070;-39
2021/03/06 08:29:41;;;;;;;8.73;3.72;;;4.30;80.30;;;;;;6214705;23;20038;-39
2021/03/06 08:32:12;;;;;;;9.80;2.65;;;4.30;80.40;;;;;;6177281;23;20023;-40
2021/03/06 08:34:47;;;;;;;10.45;4.15;;;4.30;80.70;;;;;;6215251;23;20020;-39
2021/03/06 08:37:22;;;;;;;9.02;2.92;;;4.30;80.90;;;;;;6214705;23;20155;-39
2021/03/06 08:40:09;;;;;;;8.52;3.47;;;4.40;81.00;;;;;;6215148;23;20021;-39
2021/03/06 08:42:40;;;;;;;7.82;3.22;;;4.30;81.30;;;;;;6213880;23;20099;-39
2021/03/06 08:45:10;;;;;;;;;;;4.30;82.20;;;;;;6215525;23;20027;-39
2021/03/06 08:47:39;;;;;;;7.30;3.60;;;4.20;83.60;;;;;;6204866;23;19951;-43
2021/03/06 08:50:14;;;;;;;10.38;3.20;;;4.30;84.00;;;;;;6214534;23;20027;-39
2021/03/06 08:52:51;;;;;;;9.90;3.08;;;4.40;83.10;;;;;;6178237;23;20028;-39
2021/03/06 08:55:22;;;;;;;5.72;2.88;;;4.60;82.90;;;;;;6215495;23;20071;-39
2021/03/06 08:57:48;;;;;;;16.50;7.10;;;5.00;82.50;;;;;;6214534;23;20082;-39
2021/03/06 09:00:27;;;;;;;7.00;1.92;;;5.10;81.50;;;;;;6177538;23;20604;-40
2021/03/06 09:02:53;;;;;;;43.83;27.92;;;5.10;78.70;;;;;;6188281;23;20020;-39
2021/03/06 09:05:27;;;;;;;6.75;3.67;;;5.40;78.80;;;;;;6177383;23;20334;-42
2021/03/06 09:07:57;;;;;;;19.30;11.38;;;6.10;76.80;;;;;;6215303;23;20023;-44
2021/03/06 09:10:37;;;;;;;5.38;2.08;;;7.00;73.70;;;;;;6186846;23;20051;-42
2021/03/06 09:13:18;;;;;;;11.60;5.13;;;7.40;71.10;;;;;;6213828;23;20445;-42
2021/03/06 09:16:03;;;;;;;6.45;2.28;;;7.80;68.90;;;;;;6202963;23;20480;-43
2021/03/06 09:18:39;;;;;;;7.10;1.88;;;7.30;67.20;;;;;;6213060;23;20058;-43
2021/03/06 09:21:13;;;;;;;8.27;2.72;;;7.20;68.10;;;;;;6213482;23;20028;-46
2021/03/06 09:23:41;;;;;;;4.13;1.30;;;7.20;69.10;;;;;;6177213;23;20024;-43
2021/03/06 09:26:13;;;;;;;4.78;1.30;;;7.30;67.10;;;;;;6214564;23;20027;-45
2021/03/06 09:28:39;;;;;;;;;;;7.80;66.20;;;;;;6215737;23;20021;-44
2021/03/06 09:31:21;;;;;;;14.55;8.48;;;8.10;63.90;;;;;;6204003;23;19915;-37
2021/03/06 09:33:48;;;;;;;3.38;1.40;;;8.80;64.10;;;;;;6204781;23;20020;-38
2021/03/06 09:36:17;;;;;;;11.85;6.22;;;8.70;63.10;;;;;;6214987;23;20089;-38
2021/03/06 09:38:49;;;;;;;18.05;11.63;;;7.90;63.40;;;;;;6205290;23;20019;-38
2021/03/06 09:41:17;;;;;;;3.70;1.63;;;7.40;64.80;;;;;;6177077;23;20396;-37
2021/03/06 09:43:50;;;;;;;3.45;1.55;;;6.90;66.00;;;;;;6178134;23;20058;-37
2021/03/06 09:46:24;;;;;;;3.63;1.15;;;7.70;66.00;;;;;;6214911;23;20032;-37
2021/03/06 09:48:55;;;;;;;3.05;1.10;;;8.60;63.70;;;;;;6212552;23;20024;-38
2021/03/06 09:51:22;;;;;;;3.92;0.85;;;9.70;62.10;;;;;;6203241;23;20020;-38
2021/03/06 09:53:59;;;;;;;5.15;1.10;;;10.10;60.90;;;;;;6188963;23;20043;-38
2021/03/06 09:56:26;;;;;;;11.63;7.25;;;9.80;57.40;;;;;;6178774;23;20018;-40
2021/03/06 09:59:02;;;;;;;4.45;1.50;;;9.80;58.50;;;;;;6151885;23;20039;-40
2021/03/06 10:01:29;;;;;;;5.28;1.20;;;9.20;60.80;;;;;;6204903;23;20016;-39
2021/03/06 10:03:56;;;;;;;6.32;3.10;;;8.40;65.30;;;;;;6213928;23;20712;-38
2021/03/06 10:06:24;;;;;;;4.82;1.05;;;7.80;66.40;;;;;;6215386;23;20377;-38
2021/03/06 10:08:56;;;;;;;6.15;2.42;;;7.30;70.20;;;;;;6215127;23;20046;-39
2021/03/06 10:12:02;;;;;;;5.43;1.52;;;7.10;70.20;;;;;;6213719;23;20456;-39
2021/03/06 10:14:29;;;;;;;8.00;3.80;;;6.90;72.60;;;;;;6204850;23;20020;-38
2021/03/06 10:17:18;;;;;;;3.03;1.40;;;7.00;71.90;;;;;;6203222;23;20456;-39
2021/03/06 10:19:44;;;;;;;4.70;2.05;;;7.00;72.90;;;;;;6214464;23;20028;-39
2021/03/06 10:22:12;;;;;;;6.32;2.28;;;7.00;71.80;;;;;;6203689;23;20046;-39
2021/03/06 10:24:52;;;;;;;5.63;1.55;;;7.00;71.30;;;;;;6213670;23;20020;-39
2021/03/06 10:27:38;;;;;;;3.28;1.60;;;7.20;71.80;;;;;;6177792;23;20097;-39
2021/03/06 10:30:25;;;;;;;8.95;4.97;;;7.60;70.70;;;;;;6177157;23;20020;-39
2021/03/06 10:33:00;;;;;;;8.82;3.97;;;8.00;69.10;;;;;;6203345;23;20134;-38
2021/03/06 10:35:36;;;;;;;6.80;2.08;;;8.20;66.70;;;;;;6213434;23;20036;-39
2021/03/06 10:38:07;;;;;;;8.10;4.15;;;8.20;65.40;;;;;;6204655;23;20048;-38
2021/03/06 10:40:51;;;;;;;4.35;1.70;;;8.00;65.60;;;;;;6214666;23;20123;-39
2021/03/06 10:43:29;;;;;;;6.00;2.67;;;8.30;66.20;;;;;;6177046;23;20031;-39
2021/03/06 10:46:07;;;;;;;6.53;3.05;;;8.40;66.50;;;;;;6213626;23;20012;-39
2021/03/06 10:48:34;;;;;;;5.15;1.90;;;8.50;65.10;;;;;;6176795;23;20035;-39
2021/03/06 10:51:00;;;;;;;33.20;25.08;;;8.90;64.60;;;;;;6176587;23;20027;-38
2021/03/06 10:53:27;;;;;;;15.23;10.27;;;9.00;64.00;;;;;;6202892;23;20020;-39
2021/03/06 10:55:54;;;;;;;5.70;2.60;;;9.70;63.00;;;;;;6176650;23;20495;-39
2021/03/06 10:58:21;;;;;;;5.28;1.65;;;9.80;61.10;;;;;;6205356;23;20020;-39
2021/03/06 11:00:48;;;;;;;5.45;2.03;;;10.20;60.00;;;;;;6215135;23;20027;-39
2021/03/06 11:03:14;;;;;;;5.95;2.08;;;10.70;59.20;;;;;;6176618;23;20032;-39
2021/03/06 11:05:42;;;;;;;5.65;2.00;;;10.90;57.80;;;;;;6203130;23;20016;-39
2021/03/06 11:08:21;;;;;;;5.25;1.70;;;11.80;57.50;;;;;;6177291;23;20093;-39
2021/03/06 11:10:50;;;;;;;4.53;1.30;;;12.60;53.20;;;;;;6215952;23;20024;-37
2021/03/06 11:13:17;;;;;;;8.45;1.95;;;12.70;53.30;;;;;;6179262;23;20546;-37
2021/03/06 11:15:47;;;;;;;5.10;2.03;;;12.00;54.20;;;;;;6206690;23;20024;-37
2021/03/06 11:18:13;;;;;;;5.60;1.50;;;12.00;54.10;;;;;;6206700;23;20021;-37
2021/03/06 11:20:39;;;;;;;5.63;1.60;;;11.00;55.40;;;;;;6216810;23;20523;-38
2021/03/06 11:23:06;;;;;;;6.00;1.88;;;10.60;56.60;;;;;;6178289;23;20099;-39
2021/03/06 11:25:32;;;;;;;5.22;1.40;;;10.30;58.80;;;;;;6206880;23;20098;-39
2021/03/06 11:28:07;;;;;;;2.53;1.25;;;9.70;59.60;;;;;;6207228;23;20521;-39
2021/03/06 11:30:44;;;;;;;5.93;1.40;;;9.70;59.90;;;;;;6215825;23;20016;-38
2021/03/06 11:33:17;;;;;;;4.65;1.58;;;9.60;59.60;;;;;;6179584;23;20020;-38
2021/03/06 11:35:44;;;;;;;4.13;1.50;;;10.30;59.60;;;;;;6216965;23;20017;-39
2021/03/06 11:38:12;;;;;;;3.83;1.63;;;11.20;55.80;;;;;;6206090;23;20029;-37
2021/03/06 11:40:42;;;;;;;6.15;2.05;;;12.60;53.40;;;;;;6180303;23;20116;-37
2021/03/06 11:43:08;;;;;;;15.07;8.73;;;12.30;52.60;;;;;;6179421;23;20323;-39
2021/03/06 11:45:34;;;;;;;5.78;1.90;;;12.30;53.10;;;;;;6216282;23;20095;-40
2021/03/06 11:48:00;;;;;;;4.03;1.50;;;11.80;52.80;;;;;;6179255;23;20021;-36
2021/03/06 11:50:28;;;;;;;8.82;4.22;;;12.00;52.80;;;;;;6215945;23;20021;-37
2021/03/06 11:52:56;;;;;;;5.60;1.60;;;11.80;54.30;;;;;;6204981;23;20021;-37
2021/03/06 11:55:22;;;;;;;3.58;1.20;;;10.80;55.20;;;;;;6211474;23;20255;-39
2021/03/06 11:57:48;;;;;;;2.47;1.10;;;10.20;58.40;;;;;;6213067;23;20016;-38
2021/03/06 12:00:51;;;;;;;3.67;1.00;;;9.80;60.10;;;;;;6204031;23;20032;-39
2021/03/06 12:03:16;;;;;;;2.80;1.00;;;9.60;60.20;;;;;;6214552;23;20031;-38
2021/03/06 12:05:42;;;;;;;5.18;2.05;;;9.20;61.60;;;;;;6205347;23;20016;-38
2021/03/06 12:08:08;;;;;;;3.38;1.45;;;9.10;61.20;;;;;;6214874;23;20067;-38
2021/03/06 12:10:34;;;;;;;5.72;0.95;;;8.80;62.10;;;;;;6214435;23;20118;-38
2021/03/06 12:13:00;;;;;;;3.63;0.98;;;8.70;63.30;;;;;;6177190;23;20024;-38
2021/03/06 12:15:26;;;;;;;2.70;0.90;;;8.80;63.20;;;;;;6215724;23;20488;-38
2021/03/06 12:17:53;;;;;;;5.38;1.08;;;8.70;63.00;;;;;;6215993;23;20039;-38
2021/03/06 12:20:19;;;;;;;5.05;1.10;;;8.50;63.50;;;;;;6204102;23;20066;-39
2021/03/06 12:23:29;;;;;;;6.07;1.33;;;8.50;64.00;;;;;;6204995;23;20021;-38
2021/03/06 12:25:55;;;;;;;5.22;2.00;;;8.60;63.70;;;;;;6204034;23;20027;-38
2021/03/06 12:28:20;;;;;;;9.40;1.33;;;8.70;63.20;;;;;;6214961;23;20020;-38
2021/03/06 12:30:46;;;;;;;5.85;1.38;;;9.00;62.70;;;;;;6206046;23;20776;-38
2021/03/06 12:33:12;;;;;;;4.38;1.38;;;9.00;62.40;;;;;;6188060;23;20017;-38
2021/03/06 12:35:38;;;;;;;2.60;1.10;;;9.30;62.00;;;;;;6215640;23;20016;-38
2021/03/06 12:38:04;;;;;;;3.28;1.23;;;9.30;61.80;;;;;;6215297;23;20091;-38
2021/03/06 12:40:31;;;;;;;3.95;1.15;;;9.30;61.00;;;;;;6178898;23;20012;-38
2021/03/06 12:42:57;;;;;;;3.83;1.42;;;9.20;60.90;;;;;;6205053;23;20020;-38
2021/03/06 12:46:00;;;;;;;3.92;1.60;;;9.40;61.10;;;;;;6167772;23;20044;-38
2021/03/06 12:48:26;;;;;;;3.70;1.15;;;9.60;60.20;;;;;;6189207;23;20473;-40
2021/03/06 12:50:53;;;;;;;2.22;0.95;;;9.40;60.20;;;;;;6203754;23;20669;-38
2021/03/06 12:53:19;;;;;;;4.50;1.50;;;9.30;60.60;;;;;;6185870;23;20415;-38
2021/03/06 12:55:45;;;;;;;6.45;1.30;;;9.50;61.30;;;;;;6176682;23;20016;-38
2021/03/06 12:58:11;;;;;;;4.07;1.63;;;9.50;60.60;;;;;;6214158;23;20131;-44
2021/03/06 13:00:36;;;;;;;5.28;1.73;;;9.50;59.90;;;;;;6214630;23;20027;-39
2021/03/06 13:03:03;;;;;;;3.08;1.17;;;9.80;59.10;;;;;;6214145;23;20580;-39
2021/03/06 13:05:29;;;;;;;3.42;1.50;;;9.70;59.20;;;;;;6198251;23;20017;-38
2021/03/06 13:07:55;;;;;;;1.98;0.80;;;10.20;58.30;;;;;;6188191;23;20096;-37
2021/03/06 13:10:21;;;;;;;3.35;1.33;;;10.80;57.30;;;;;;6177888;23;20461;-37
2021/03/06 13:12:46;;;;;;;2.53;1.70;;;10.80;56.00;;;;;;6215619;23;20648;-39
2021/03/06 13:15:14;;;;;;;3.80;1.63;;;10.60;57.80;;;;;;6187297;23;20028;-39